Time;durP1;ratioP1;P1;durP2;ratioP2;P2;SDS_P1;SDS_P2;PMS_P1;PMS_P2;Temp;Humidity;BMP_temperature;BMP_pressure;BME280_temperature;BME280_humidity;BME280_pressure;Samples;Min_cycle;Max_cycle;Signal;HPM_P1;HPM_P2
2024/04/24 04:08:02;;;;;;;0.40;0.40;;;1.70;99.90;;;;;;5167273;27;20326;-68
2024/04/24 04:10:28;;;;;;;0.40;0.40;;;1.60;99.90;;;;;;5155793;27;20239;-68
2024/04/24 04:12:53;;;;;;;0.40;0.40;;;1.40;99.90;;;;;;5149346;27;20783;-68
2024/04/24 04:15:19;;;;;;;0.40;0.40;;;1.40;99.90;;;;;;5180755;27;20767;-67
2024/04/24 04:17:45;;;;;;;0.40;0.40;;;1.40;99.90;;;;;;5181020;27;20646;-67
2024/04/24 04:20:11;;;;;;;0.40;0.40;;;1.50;99.90;;;;;;5180899;27;20221;-67
2024/04/24 04:22:37;;;;;;;0.40;0.40;;;1.50;99.90;;;;;;5180934;27;20269;-67
2024/04/24 04:25:03;;;;;;;0.40;0.40;;;1.50;99.90;;;;;;5179940;27;20254;-67
2024/04/24 04:27:29;;;;;;;1.43;1.43;;;1.40;99.90;;;;;;5148301;27;20390;-69
2024/04/24 04:29:55;;;;;;;0.40;0.40;;;1.40;99.90;;;;;;5148648;27;20515;-68
2024/04/24 04:32:24;;;;;;;0.40;0.40;;;1.40;99.90;;;;;;5146900;27;20270;-67
2024/04/24 04:34:52;;;;;;;0.40;0.40;;;1.50;99.90;;;;;;5148055;27;20452;-67
2024/04/24 04:37:18;;;;;;;0.40;0.40;;;1.60;99.90;;;;;;5146893;27;20243;-68
2024/04/24 04:39:44;;;;;;;0.40;0.40;;;1.70;99.90;;;;;;5148183;27;20235;-68
2024/04/24 04:42:09;;;;;;;0.40;0.40;;;1.80;99.90;;;;;;5148392;27;20226;-68
2024/04/24 04:44:35;;;;;;;0.73;0.73;;;1.90;99.90;;;;;;5145582;27;20707;-68
2024/04/24 04:47:01;;;;;;;0.40;0.40;;;1.90;99.90;;;;;;5140008;27;20239;-67
2024/04/24 04:49:27;;;;;;;0.30;0.30;;;2.00;99.90;;;;;;5148214;27;20231;-68
2024/04/24 04:51:53;;;;;;;0.30;0.30;;;2.00;99.90;;;;;;5148477;27;20231;-68
2024/04/24 04:54:18;;;;;;;0.40;0.40;;;2.10;99.90;;;;;;5147840;27;20727;-68
2024/04/24 04:56:44;;;;;;;0.40;0.40;;;2.20;99.90;;;;;;5145747;27;20747;-67
2024/04/24 04:59:09;;;;;;;0.40;0.40;;;2.20;99.90;;;;;;5148134;27;20299;-68
2024/04/24 05:01:36;;;;;;;0.40;0.40;;;2.30;99.90;;;;;;5147878;27;20266;-67
2024/04/24 05:04:02;;;;;;;0.40;0.40;;;2.30;99.90;;;;;;5145583;27;20283;-66
2024/04/24 05:06:27;;;;;;;0.40;0.40;;;2.30;99.90;;;;;;5175483;27;20332;-68
2024/04/24 05:08:53;;;;;;;0.40;0.40;;;2.40;99.90;;;;;;5180231;27;20230;-68
2024/04/24 05:11:21;;;;;;;0.40;0.40;;;2.60;99.90;;;;;;5180436;27;20234;-68
2024/04/24 05:13:47;;;;;;;0.43;0.43;;;3.00;99.90;;;;;;5180116;27;20273;-68
2024/04/24 05:16:13;;;;;;;0.30;0.30;;;3.30;99.90;;;;;;5164037;27;20744;-68
2024/04/24 05:18:39;;;;;;;0.73;0.73;;;3.70;99.90;;;;;;5152284;27;20235;-68
2024/04/24 05:21:06;;;;;;;0.30;0.30;;;4.00;99.90;;;;;;5172573;27;20230;-68
2024/04/24 05:23:33;;;;;;;0.40;0.40;;;4.40;99.90;;;;;;5166567;27;20283;-68
2024/04/24 05:29:03;;;;;;;0.45;0.45;;;4.90;99.90;;;;;;5161126;27;20399;-68
2024/04/24 05:29:03;;;;;;;0.40;0.40;;;5.30;99.90;;;;;;5146216;27;20706;-67
2024/04/24 05:31:30;;;;;;;0.30;0.30;;;5.70;99.90;;;;;;5147045;27;20360;-66
2024/04/24 05:33:56;;;;;;;0.43;0.43;;;5.90;99.90;;;;;;5147493;27;20281;-66
2024/04/24 05:36:21;;;;;;;0.30;0.30;;;5.90;99.90;;;;;;5146645;27;20780;-66
2024/04/24 05:38:47;;;;;;;0.30;0.30;;;5.90;99.90;;;;;;5120924;27;20247;-66
2024/04/24 05:41:12;;;;;;;0.93;0.70;;;6.00;99.90;;;;;;5135432;27;20285;-67
2024/04/24 05:43:38;;;;;;;0.30;0.30;;;6.00;99.90;;;;;;5155596;27;20262;-67
2024/04/24 05:46:04;;;;;;;0.30;0.30;;;6.00;99.90;;;;;;5146250;27;20269;-67
2024/04/24 05:48:32;;;;;;;0.93;0.93;;;6.10;99.90;;;;;;5146907;27;20239;-66
2024/04/24 05:50:57;;;;;;;0.30;0.30;;;6.40;99.90;;;;;;5157181;27;20227;-68
2024/04/24 05:53:23;;;;;;;0.40;0.40;;;6.80;99.90;;;;;;5160815;27;20405;-67
2024/04/24 05:55:49;;;;;;;0.60;0.60;;;7.40;99.90;;;;;;5146280;27;20239;-71
2024/04/24 05:58:17;;;;;;;0.30;0.30;;;7.80;99.90;;;;;;5146810;27;20231;-70
2024/04/24 06:00:43;;;;;;;0.30;0.30;;;8.20;99.90;;;;;;5145757;27;20290;-68
2024/04/24 06:03:08;;;;;;;0.30;0.30;;;8.50;99.10;;;;;;5147736;27;20240;-68
2024/04/24 06:05:34;;;;;;;0.30;0.30;;;8.60;98.00;;;;;;5148896;27;20358;-67
2024/04/24 06:08:00;;;;;;;1.23;0.50;;;8.80;97.50;;;;;;5169544;27;20245;-69
2024/04/24 06:10:29;;;;;;;0.30;0.30;;;9.00;96.40;;;;;;5146717;27;20316;-68
2024/04/24 06:12:55;;;;;;;0.30;0.30;;;9.10;95.40;;;;;;5139256;27;20467;-68
2024/04/24 06:15:21;;;;;;;0.60;0.60;;;9.20;94.80;;;;;;5114327;27;20449;-68
2024/04/24 06:17:49;;;;;;;0.30;0.30;;;9.40;95.20;;;;;;5114367;28;21041;-68
2024/04/24 06:20:16;;;;;;;0.30;0.30;;;9.60;95.40;;;;;;5124068;27;20239;-68
2024/04/24 06:22:42;;;;;;;0.40;0.40;;;10.00;94.10;;;;;;5144295;27;20587;-68
2024/04/24 06:25:11;;;;;;;0.30;0.30;;;10.30;93.00;;;;;;5141459;27;21162;-70
2024/04/24 06:27:37;;;;;;;0.30;0.30;;;10.60;91.60;;;;;;5141225;27;20495;-71
2024/04/24 06:30:03;;;;;;;0.40;0.40;;;10.90;91.10;;;;;;5148273;27;20493;-68
2024/04/24 06:32:29;;;;;;;0.30;0.27;;;11.20;90.70;;;;;;5176085;27;20454;-70
2024/04/24 06:34:54;;;;;;;0.40;0.40;;;11.40;88.80;;;;;;5175835;27;20510;-70
2024/04/24 06:37:20;;;;;;;0.30;0.30;;;11.50;88.20;;;;;;5176648;27;20272;-71
2024/04/24 06:39:46;;;;;;;0.40;0.40;;;11.60;87.80;;;;;;5177972;27;20306;-71
2024/04/24 06:42:12;;;;;;;0.30;0.30;;;11.70;86.40;;;;;;5179147;27;20223;-70
2024/04/24 06:44:38;;;;;;;0.50;0.40;;;11.70;87.20;;;;;;5178317;27;20878;-71
2024/04/24 06:47:05;;;;;;;0.83;0.83;;;11.90;88.30;;;;;;5177098;27;20340;-70
2024/04/24 06:49:32;;;;;;;0.70;0.70;;;12.10;86.70;;;;;;5179396;27;20222;-71
2024/04/24 06:51:59;;;;;;;0.30;0.30;;;12.20;86.50;;;;;;5179690;27;20501;-71
2024/04/24 06:54:24;;;;;;;0.40;0.40;;;12.60;86.90;;;;;;5172105;27;20456;-73
2024/04/24 06:56:50;;;;;;;0.70;0.70;;;13.10;84.40;;;;;;5144040;27;20466;-72
2024/04/24 06:59:16;;;;;;;0.30;0.30;;;13.50;84.90;;;;;;5144343;27;20235;-70
2024/04/24 07:01:42;;;;;;;0.30;0.20;;;14.00;83.90;;;;;;5146110;27;20247;-69
2024/04/24 07:04:08;;;;;;;0.40;0.40;;;14.00;80.40;;;;;;5146371;27;20476;-69
2024/04/24 07:06:33;;;;;;;0.43;0.40;;;13.70;79.00;;;;;;5178328;27;20713;-70
2024/04/24 07:09:02;;;;;;;0.30;0.30;;;13.30;79.90;;;;;;5173935;27;20327;-69
2024/04/24 07:11:28;;;;;;;0.50;0.50;;;12.90;81.10;;;;;;5146069;27;20291;-71
2024/04/24 07:13:53;;;;;;;0.67;0.43;;;12.40;83.00;;;;;;5145909;27;21017;-71
2024/04/24 07:16:19;;;;;;;3.37;1.03;;;12.00;84.00;;;;;;5146027;27;20602;-70
2024/04/24 07:18:45;;;;;;;0.40;0.40;;;11.70;82.90;;;;;;5155047;27;20245;-68
2024/04/24 07:21:10;;;;;;;0.43;0.43;;;11.20;84.10;;;;;;5178479;27;20457;-70
2024/04/24 07:23:36;;;;;;;0.30;0.30;;;10.90;85.10;;;;;;5178526;27;20226;-68
2024/04/24 07:26:02;;;;;;;0.30;0.30;;;10.30;87.80;;;;;;5177816;27;20328;-70
2024/04/24 07:28:27;;;;;;;0.50;0.50;;;10.00;88.50;;;;;;5178113;27;20564;-68
2024/04/24 07:30:53;;;;;;;0.47;0.47;;;9.80;90.90;;;;;;5178124;27;20880;-68
2024/04/24 07:33:19;;;;;;;0.30;0.30;;;9.60;91.80;;;;;;5177916;27;20282;-69
2024/04/24 07:35:44;;;;;;;0.30;0.30;;;9.40;91.70;;;;;;5177898;27;20324;-68
2024/04/24 07:38:11;;;;;;;0.70;0.70;;;9.40;91.50;;;;;;5178331;27;21021;-69
2024/04/24 07:40:37;;;;;;;0.30;0.30;;;9.10;92.30;;;;;;5177903;27;20226;-68
2024/04/24 07:43:03;;;;;;;0.30;0.30;;;9.10;92.70;;;;;;5166739;27;20281;-68
2024/04/24 07:45:28;;;;;;;0.30;0.30;;;8.90;92.60;;;;;;5146360;27;20718;-71
2024/04/24 07:47:54;;;;;;;0.30;0.30;;;8.80;92.80;;;;;;5148717;27;20327;-71
2024/04/24 07:50:19;;;;;;;0.30;0.30;;;8.70;92.70;;;;;;5150503;27;20237;-70
2024/04/24 07:52:45;;;;;;;0.30;0.30;;;8.50;93.60;;;;;;5178994;27;20728;-67
2024/04/24 07:55:11;;;;;;;0.40;0.40;;;8.40;93.60;;;;;;5178844;27;20454;-66
2024/04/24 07:57:37;;;;;;;0.37;0.37;;;8.40;93.90;;;;;;5180898;27;20242;-68
2024/04/24 08:00:02;;;;;;;0.30;0.30;;;8.20;94.50;;;;;;5179438;27;20269;-69
2024/04/24 08:02:28;;;;;;;0.30;0.30;;;8.20;95.40;;;;;;5148843;27;20654;-68
2024/04/24 08:04:54;;;;;;;0.50;0.50;;;8.10;95.40;;;;;;5148054;27;20460;-68
2024/04/24 08:07:19;;;;;;;0.30;0.30;;;8.00;95.90;;;;;;5148186;27;20246;-70
2024/04/24 08:09:45;;;;;;;0.40;0.40;;;8.00;95.90;;;;;;5149583;27;20223;-69
2024/04/24 08:12:11;;;;;;;0.40;0.40;;;8.10;96.40;;;;;;5173643;27;20349;-68
2024/04/24 08:14:42;;;;;;;0.40;0.40;;;8.10;96.60;;;;;;5148379;27;20809;-69
2024/04/24 08:17:07;;;;;;;0.30;0.30;;;8.20;97.00;;;;;;5148823;27;20631;-69
2024/04/24 08:19:33;;;;;;;0.30;0.30;;;8.30;96.40;;;;;;5147945;27;20227;-68
2024/04/24 08:21:58;;;;;;;0.30;0.20;;;8.40;96.10;;;;;;5148369;27;20761;-70
2024/04/24 08:24:24;;;;;;;0.30;0.30;;;8.50;96.10;;;;;;5148367;27;20235;-69
2024/04/24 08:26:50;;;;;;;0.30;0.30;;;8.60;95.90;;;;;;5174857;27;20354;-68
2024/04/24 08:29:16;;;;;;;0.30;0.30;;;8.70;95.70;;;;;;5148089;27;20288;-69
2024/04/24 08:31:41;;;;;;;2.77;2.10;;;8.80;95.30;;;;;;5148240;27;20270;-69
2024/04/24 08:34:07;;;;;;;0.30;0.30;;;8.80;95.20;;;;;;5146538;27;20262;-69
2024/04/24 08:36:32;;;;;;;0.37;0.37;;;8.90;95.20;;;;;;5147555;27;20666;-68
2024/04/24 08:38:59;;;;;;;0.30;0.30;;;8.90;95.10;;;;;;5148237;27;20273;-70
2024/04/24 08:41:26;;;;;;;0.30;0.30;;;8.90;94.90;;;;;;5148164;27;20269;-70
2024/04/24 08:43:52;;;;;;;0.30;0.30;;;8.90;94.80;;;;;;5148312;27;20625;-69
2024/04/24 08:46:21;;;;;;;0.52;0.52;;;8.90;94.70;;;;;;5147589;27;20239;-71
2024/04/24 08:48:47;;;;;;;0.47;0.47;;;8.80;94.50;;;;;;5148114;27;20221;-70
2024/04/24 08:51:13;;;;;;;0.30;0.30;;;8.70;95.10;;;;;;5157169;27;20580;-69
2024/04/24 08:54:07;;;;;;;0.50;0.50;;;8.60;95.30;;;;;;5180722;27;20219;-71
2024/04/24 08:56:37;;;;;;;0.35;0.35;;;8.60;95.90;;;;;;5175702;27;20242;-70
2024/04/24 08:59:11;;;;;;;0.55;0.55;;;8.70;96.60;;;;;;5178769;27;20285;-69
2024/04/24 09:01:39;;;;;;;0.30;0.30;;;8.80;96.00;;;;;;5180463;27;20618;-69
2024/04/24 09:04:06;;;;;;;0.30;0.30;;;9.00;95.70;;;;;;5181080;27;20226;-69
2024/04/24 09:06:36;;;;;;;0.30;0.30;;;9.10;96.20;;;;;;5177350;27;20263;-69
2024/04/24 09:09:02;;;;;;;0.30;0.30;;;9.30;96.00;;;;;;5180426;27;20227;-68
2024/04/24 09:11:30;;;;;;;0.30;0.30;;;9.40;95.70;;;;;;5181111;27;20544;-69
2024/04/24 09:13:58;;;;;;;1.13;1.10;;;9.50;94.80;;;;;;5180543;27;20218;-67
2024/04/24 09:16:26;;;;;;;0.30;0.30;;;9.60;94.80;;;;;;5179749;27;20236;-70
2024/04/24 09:19:01;;;;;;;0.30;0.30;;;9.70;94.60;;;;;;5149366;27;20734;-72
2024/04/24 09:21:30;;;;;;;0.30;0.30;;;9.70;93.60;;;;;;5147786;27;20841;-71
2024/04/24 09:23:59;;;;;;;0.30;0.30;;;9.60;93.20;;;;;;5147492;27;20508;-68
2024/04/24 09:26:25;;;;;;;0.30;0.30;;;9.40;94.00;;;;;;5147565;27;20287;-72
2024/04/24 09:28:51;;;;;;;0.30;0.30;;;9.50;93.90;;;;;;5147932;27;20235;-70
2024/04/24 09:31:17;;;;;;;0.30;0.30;;;9.50;94.20;;;;;;5147641;27;20596;-69
2024/04/24 09:33:43;;;;;;;0.60;0.60;;;9.40;94.00;;;;;;5147658;27;20283;-71
2024/04/24 09:36:11;;;;;;;0.30;0.30;;;9.40;94.50;;;;;;5146981;27;20247;-67
2024/04/24 09:38:39;;;;;;;0.30;0.30;;;9.30;94.30;;;;;;5147844;27;20221;-73
2024/04/24 09:41:05;;;;;;;0.30;0.30;;;9.10;94.60;;;;;;5147658;27;20706;-71
2024/04/24 09:43:31;;;;;;;0.30;0.30;;;9.10;95.20;;;;;;5172249;27;20229;-70
2024/04/24 09:45:58;;;;;;;0.30;0.30;;;8.90;95.10;;;;;;5162231;27;20287;-69
2024/04/24 09:48:24;;;;;;;0.30;0.30;;;9.00;95.70;;;;;;5147359;27;20224;-72
2024/04/24 09:50:50;;;;;;;0.40;0.40;;;8.90;95.60;;;;;;5146475;27;20224;-70
2024/04/24 09:53:17;;;;;;;0.30;0.30;;;9.00;96.00;;;;;;5147259;27;20328;-71
2024/04/24 09:55:59;;;;;;;0.50;0.50;;;8.90;96.60;;;;;;5152974;27;20274;-71
2024/04/24 09:58:26;;;;;;;1.00;0.98;;;8.80;97.10;;;;;;5179661;27;20320;-73
2024/04/24 10:00:53;;;;;;;0.30;0.30;;;8.60;97.60;;;;;;5177447;27;20760;-70
2024/04/24 10:03:22;;;;;;;0.30;0.30;;;8.50;99.20;;;;;;5178304;27;20246;-71
2024/04/24 10:05:51;;;;;;;0.60;0.60;;;8.50;99.20;;;;;;5178995;27;20226;-70
2024/04/24 10:08:24;;;;;;;0.38;0.38;;;8.40;99.20;;;;;;5179347;27;20241;-73
2024/04/24 10:10:52;;;;;;;0.63;0.63;;;8.20;99.90;;;;;;5179090;27;20273;-76
2024/04/24 10:13:19;;;;;;;0.30;0.30;;;8.10;99.90;;;;;;5178922;27;20261;-71
2024/04/24 10:15:53;;;;;;;0.50;0.50;;;8.00;99.90;;;;;;5178680;27;20226;-68
2024/04/24 10:18:20;;;;;;;0.75;0.63;;;8.00;99.90;;;;;;5178235;27;20234;-70
2024/04/24 10:20:49;;;;;;;0.32;0.32;;;8.00;99.90;;;;;;5179748;27;20222;-71
2024/04/24 10:23:17;;;;;;;0.40;0.40;;;8.00;99.90;;;;;;5177270;27;20256;-70
2024/04/24 10:25:44;;;;;;;0.30;0.30;;;8.00;99.90;;;;;;5178050;27;20329;-70
2024/04/24 10:28:11;;;;;;;0.30;0.30;;;8.00;99.90;;;;;;5179636;27;20218;-69
2024/04/24 10:30:39;;;;;;;0.30;0.30;;;8.00;99.90;;;;;;5178664;27;20226;-71
2024/04/24 10:33:06;;;;;;;0.30;0.30;;;8.00;99.90;;;;;;5203467;27;20281;-70
2024/04/24 10:35:32;;;;;;;0.30;0.30;;;8.20;99.90;;;;;;5178136;27;20234;-71
2024/04/24 10:37:58;;;;;;;0.90;0.90;;;8.20;99.90;;;;;;5178378;27;20617;-70
2024/04/24 10:40:27;;;;;;;0.30;0.30;;;8.30;99.90;;;;;;5179095;27;20522;-70
2024/04/24 10:42:55;;;;;;;0.30;0.20;;;8.40;99.90;;;;;;5170928;27;20346;-71
2024/04/24 10:45:23;;;;;;;0.30;0.30;;;8.40;99.90;;;;;;5146049;27;20230;-70
2024/04/24 10:47:52;;;;;;;0.77;0.77;;;8.50;99.90;;;;;;5146434;27;20259;-71
2024/04/24 10:50:18;;;;;;;0.50;0.50;;;8.40;99.90;;;;;;5146755;27;20223;-70
2024/04/24 10:52:55;;;;;;;0.30;0.30;;;8.40;99.90;;;;;;5146494;27;20323;-71
2024/04/24 10:55:21;;;;;;;0.30;0.30;;;8.40;99.90;;;;;;5145784;27;20262;-70
2024/04/24 10:57:51;;;;;;;0.30;0.30;;;8.60;99.90;;;;;;5143831;27;20718;-72
2024/04/24 11:00:21;;;;;;;0.30;0.30;;;8.60;99.90;;;;;;5145529;27;20578;-70
2024/04/24 11:02:52;;;;;;;1.52;1.38;;;8.50;99.90;;;;;;5145808;27;20231;-68
2024/04/24 11:05:20;;;;;;;0.30;0.30;;;8.30;99.90;;;;;;5143598;27;20249;-70
2024/04/24 11:07:58;;;;;;;0.30;0.30;;;8.00;99.90;;;;;;5145352;27;20257;-69
2024/04/24 11:10:24;;;;;;;0.30;0.30;;;7.90;99.90;;;;;;5145822;27;20559;-70
2024/04/24 11:12:50;;;;;;;0.30;0.30;;;7.90;99.90;;;;;;5175575;27;20617;-72
2024/04/24 11:15:20;;;;;;;0.30;0.30;;;7.80;99.90;;;;;;5177760;27;20218;-71
2024/04/24 11:17:48;;;;;;;0.30;0.30;;;7.70;99.90;;;;;;5175903;27;21113;-70
2024/04/24 11:20:20;;;;;;;0.82;0.68;;;7.60;99.90;;;;;;5176834;27;20222;-68
2024/04/24 11:22:46;;;;;;;0.30;0.30;;;7.50;99.90;;;;;;5177696;27;20230;-69
2024/04/24 11:25:14;;;;;;;0.30;0.30;;;7.40;99.90;;;;;;5177668;27;20278;-71
2024/04/24 11:27:41;;;;;;;0.40;0.40;;;7.30;99.90;;;;;;5178091;27;20280;-70
2024/04/24 11:30:21;;;;;;;1.15;1.15;;;7.10;99.90;;;;;;5178433;27;20282;-69
2024/04/24 11:32:51;;;;;;;0.40;0.40;;;7.00;99.90;;;;;;5178394;27;20220;-70
2024/04/24 11:35:18;;;;;;;0.55;0.55;;;7.00;99.90;;;;;;5177885;27;20268;-70
2024/04/24 11:37:44;;;;;;;0.40;0.40;;;6.80;99.90;;;;;;5176250;27;20551;-70
2024/04/24 11:40:11;;;;;;;0.30;0.30;;;6.70;99.90;;;;;;5174387;27;20226;-68
2024/04/24 11:42:46;;;;;;;0.30;0.30;;;6.70;99.90;;;;;;5145485;27;20288;-69
2024/04/24 11:45:13;;;;;;;0.30;0.30;;;6.60;99.90;;;;;;5145295;27;20256;-70
2024/04/24 11:47:39;;;;;;;0.30;0.30;;;6.50;99.90;;;;;;5145061;27;20256;-72
2024/04/24 11:50:06;;;;;;;0.30;0.30;;;6.50;99.90;;;;;;5145724;27;20230;-72
2024/04/24 11:52:40;;;;;;;0.30;0.30;;;6.50;99.90;;;;;;5145456;27;20502;-73
2024/04/24 11:55:06;;;;;;;0.30;0.30;;;6.50;99.90;;;;;;5149097;27;20235;-72
2024/04/24 11:57:39;;;;;;;0.30;0.30;;;6.70;99.90;;;;;;5177881;27;20430;-72
2024/04/24 12:00:06;;;;;;;0.30;0.30;;;6.80;99.90;;;;;;5164670;27;20234;-74
2024/04/24 12:02:33;;;;;;;0.30;0.30;;;7.00;99.90;;;;;;5145711;27;20785;-73
2024/04/24 12:05:03;;;;;;;0.70;0.70;;;7.10;99.90;;;;;;5145451;27;20217;-74
2024/04/24 12:07:29;;;;;;;0.30;0.20;;;7.30;99.90;;;;;;5143722;27;20607;-73
2024/04/24 12:09:55;;;;;;;0.30;0.30;;;7.40;99.90;;;;;;5145433;27;20223;-72
2024/04/24 12:12:21;;;;;;;0.38;0.38;;;7.70;99.90;;;;;;5145033;27;20578;-68
2024/04/24 12:14:51;;;;;;;0.30;0.30;;;8.00;99.90;;;;;;5145857;27;20265;-69
2024/04/24 12:17:17;;;;;;;0.30;0.30;;;8.30;99.90;;;;;;5177218;27;20246;-67
2024/04/24 12:19:44;;;;;;;0.30;0.30;;;8.50;99.90;;;;;;5178504;27;20261;-70
2024/04/24 12:22:11;;;;;;;0.30;0.30;;;8.70;99.90;;;;;;5175767;27;20567;-70
2024/04/24 12:24:36;;;;;;;0.60;0.60;;;9.00;99.90;;;;;;5177209;27;20621;-78
2024/04/24 12:27:02;;;;;;;0.50;0.50;;;9.20;99.90;;;;;;5177543;27;20322;-74
2024/04/24 12:29:28;;;;;;;0.30;0.30;;;9.40;99.90;;;;;;5177317;27;20230;-74
2024/04/24 12:31:55;;;;;;;0.30;0.30;;;9.40;99.90;;;;;;5179671;27;20226;-71
2024/04/24 12:34:20;;;;;;;0.30;0.30;;;9.50;99.90;;;;;;5181134;27;20223;-71
2024/04/24 12:36:46;;;;;;;0.30;0.30;;;9.70;99.90;;;;;;5180338;27;20528;-72
2024/04/24 12:39:11;;;;;;;0.30;0.30;;;9.90;99.90;;;;;;5180803;27;20222;-69
2024/04/24 12:41:37;;;;;;;0.30;0.30;;;10.00;99.90;;;;;;5180677;27;20232;-71
2024/04/24 12:44:04;;;;;;;0.30;0.30;;;9.90;99.90;;;;;;5164213;27;20232;-70
2024/04/24 12:46:30;;;;;;;0.40;0.40;;;9.70;99.90;;;;;;5147465;27;20522;-72
2024/04/24 12:48:56;;;;;;;0.30;0.30;;;9.70;99.90;;;;;;5146169;27;20227;-72
2024/04/24 12:51:22;;;;;;;0.40;0.40;;;9.70;99.90;;;;;;5147368;27;20461;-73
2024/04/24 12:53:48;;;;;;;0.70;0.70;;;9.80;99.90;;;;;;5148009;27;20809;-72
2024/04/24 12:56:13;;;;;;;0.30;0.30;;;10.00;99.90;;;;;;5147518;27;20301;-74
2024/04/24 12:58:39;;;;;;;0.30;0.20;;;10.20;99.90;;;;;;5162437;27;20240;-74
2024/04/24 13:01:05;;;;;;;0.50;0.50;;;10.40;99.90;;;;;;5180163;27;20230;-70
2024/04/24 13:03:30;;;;;;;0.60;0.60;;;10.60;99.90;;;;;;5180700;27;20224;-72
2024/04/24 13:05:56;;;;;;;0.30;0.30;;;10.50;99.90;;;;;;5177613;27;20838;-72
2024/04/24 13:08:22;;;;;;;0.70;0.70;;;10.30;99.10;;;;;;5180259;27;20235;-74
2024/04/24 13:10:47;;;;;;;0.40;0.40;;;10.30;99.00;;;;;;5180373;27;20224;-73
2024/04/24 13:13:13;;;;;;;0.50;0.50;;;10.30;98.70;;;;;;5153457;27;20237;-73
2024/04/24 13:15:38;;;;;;;0.30;0.30;;;10.30;97.90;;;;;;5147250;27;20224;-71
2024/04/24 13:18:04;;;;;;;0.30;0.30;;;10.30;97.10;;;;;;5147417;27;20711;-69
2024/04/24 13:20:30;;;;;;;0.40;0.40;;;10.20;97.00;;;;;;5147270;27;20232;-72
2024/04/24 13:22:55;;;;;;;0.30;0.27;;;10.00;97.10;;;;;;5147328;27;20223;-71
2024/04/24 13:25:21;;;;;;;0.30;0.30;;;9.80;97.90;;;;;;5146555;27;20357;-72
2024/04/24 13:27:47;;;;;;;0.30;0.30;;;9.60;98.40;;;;;;5147302;27;20760;-71
2024/04/24 13:30:13;;;;;;;0.30;0.30;;;9.40;99.40;;;;;;5146547;27;20231;-73
2024/04/24 13:32:40;;;;;;;0.30;0.30;;;9.10;99.90;;;;;;5147572;27;20230;-71
2024/04/24 13:35:06;;;;;;;0.30;0.30;;;8.80;99.90;;;;;;5144130;27;20463;-73
2024/04/24 13:37:31;;;;;;;0.30;0.30;;;8.60;99.90;;;;;;5144476;27;20365;-73
2024/04/24 13:39:57;;;;;;;0.30;0.30;;;8.40;99.90;;;;;;5154249;27;20700;-74
2024/04/24 13:42:23;;;;;;;0.30;0.30;;;8.30;99.90;;;;;;5178396;27;20261;-72
2024/04/24 13:44:49;;;;;;;0.30;0.30;;;8.30;99.90;;;;;;5175220;27;20222;-71
2024/04/24 13:47:15;;;;;;;0.30;0.30;;;8.30;99.90;;;;;;5179471;27;20537;-73
2024/04/24 13:49:40;;;;;;;0.30;0.30;;;8.30;99.90;;;;;;5177921;27;20242;-73
2024/04/24 13:52:06;;;;;;;0.30;0.30;;;8.20;99.90;;;;;;5178885;27;20285;-73
2024/04/24 13:54:32;;;;;;;0.30;0.30;;;8.20;99.90;;;;;;5177442;27;20574;-72
2024/04/24 13:56:58;;;;;;;0.40;0.40;;;8.10;99.90;;;;;;5152735;27;20286;-71
2024/04/24 13:59:24;;;;;;;0.30;0.30;;;8.00;99.90;;;;;;5145821;27;20231;-72
2024/04/24 14:01:50;;;;;;;0.30;0.30;;;7.90;99.90;;;;;;5145813;27;20235;-72
2024/04/24 14:04:19;;;;;;;0.30;0.30;;;7.70;99.90;;;;;;5146098;27;20220;-74
2024/04/24 14:06:45;;;;;;;0.50;0.50;;;7.60;99.90;;;;;;5144241;27;20729;-73
2024/04/24 14:09:10;;;;;;;0.30;0.30;;;7.70;99.90;;;;;;5146536;27;20235;-72
2024/04/24 14:11:36;;;;;;;0.30;0.30;;;7.60;99.90;;;;;;5169661;27;20238;-74
2024/04/24 14:14:02;;;;;;;0.30;0.30;;;7.50;99.90;;;;;;5178163;27;20721;-72
2024/04/24 14:16:28;;;;;;;0.30;0.30;;;7.50;99.90;;;;;;5177885;27;20238;-73
2024/04/24 14:18:55;;;;;;;0.30;0.30;;;7.60;99.90;;;;;;5178313;27;20506;-72
2024/04/24 14:21:20;;;;;;;0.40;0.40;;;7.60;99.90;;;;;;5178429;27;20598;-72
2024/04/24 14:23:46;;;;;;;0.30;0.30;;;7.70;99.90;;;;;;5170632;27;20390;-72
2024/04/24 14:26:13;;;;;;;0.30;0.30;;;7.80;99.90;;;;;;5145105;27;20231;-72
2024/04/24 14:28:39;;;;;;;0.40;0.40;;;7.80;99.90;;;;;;5145125;27;20290;-73
2024/04/24 14:31:04;;;;;;;0.30;0.20;;;7.90;99.90;;;;;;5145312;27;20219;-72
2024/04/24 14:33:30;;;;;;;0.30;0.30;;;8.00;99.90;;;;;;5145872;27;20240;-73
2024/04/24 14:35:56;;;;;;;0.30;0.30;;;8.00;99.90;;;;;;5145360;27;20235;-73
2024/04/24 14:38:23;;;;;;;0.30;0.30;;;8.10;99.90;;;;;;5145686;27;20643;-72
2024/04/24 14:40:54;;;;;;;0.30;0.30;;;8.20;99.90;;;;;;5143578;27;20544;-73
2024/04/24 14:43:20;;;;;;;0.30;0.30;;;8.30;99.90;;;;;;5145705;27;20235;-74
2024/04/24 14:45:46;;;;;;;0.30;0.30;;;8.50;99.90;;;;;;5143473;27;20243;-74
2024/04/24 14:48:12;;;;;;;0.30;0.27;;;8.80;99.90;;;;;;5145629;27;20224;-74
2024/04/24 14:50:37;;;;;;;0.30;0.30;;;9.00;99.90;;;;;;5143834;27;20238;-73
2024/04/24 14:53:03;;;;;;;0.30;0.20;;;9.10;99.90;;;;;;5149649;27;21114;-73
2024/04/24 14:55:31;;;;;;;0.30;0.30;;;9.20;99.90;;;;;;5176682;27;20226;-72
2024/04/24 14:57:56;;;;;;;0.30;0.30;;;9.20;99.90;;;;;;5177935;27;20550;-72
2024/04/24 15:00:22;;;;;;;0.30;0.30;;;9.10;99.90;;;;;;5177543;27;20330;-72
2024/04/24 15:02:48;;;;;;;0.40;0.40;;;9.10;99.90;;;;;;5177856;27;20222;-74
2024/04/24 15:05:14;;;;;;;0.30;0.30;;;9.00;99.90;;;;;;5177650;27;20234;-73
2024/04/24 15:07:40;;;;;;;0.30;0.30;;;9.10;99.90;;;;;;5177911;27;20475;-73
2024/04/24 15:10:06;;;;;;;0.30;0.30;;;9.20;99.90;;;;;;5176680;27;20261;-73
2024/04/24 15:12:32;;;;;;;0.30;0.30;;;9.50;99.90;;;;;;5175538;27;20561;-73
2024/04/24 15:14:58;;;;;;;0.30;0.30;;;9.70;99.90;;;;;;5174729;27;20222;-72
2024/04/24 15:17:23;;;;;;;0.30;0.30;;;9.60;99.90;;;;;;5174426;27;20232;-72
2024/04/24 15:19:49;;;;;;;0.30;0.30;;;9.50;99.90;;;;;;5174412;27;20821;-71
2024/04/24 15:22:15;;;;;;;0.30;0.30;;;9.30;99.90;;;;;;5155739;27;20352;-72
2024/04/24 15:24:40;;;;;;;0.30;0.30;;;9.10;99.90;;;;;;5142503;27;20239;-72
2024/04/24 15:27:06;;;;;;;0.30;0.30;;;9.00;99.90;;;;;;5143795;27;20719;-72
2024/04/24 15:29:32;;;;;;;0.40;0.40;;;9.00;99.90;;;;;;5145447;27;20540;-73
2024/04/24 15:31:58;;;;;;;0.30;0.30;;;8.90;99.90;;;;;;5143867;27;20565;-72
2024/04/24 15:34:24;;;;;;;0.30;0.30;;;8.90;99.90;;;;;;5145687;27;20598;-72
2024/04/24 15:36:50;;;;;;;0.30;0.30;;;8.80;99.90;;;;;;5145432;27;20243;-73
2024/04/24 15:39:16;;;;;;;0.30;0.30;;;8.80;99.90;;;;;;5145303;27;20682;-73
2024/04/24 15:41:43;;;;;;;0.40;0.40;;;8.80;99.90;;;;;;5165601;27;20242;-73
2024/04/24 15:44:10;;;;;;;0.43;0.43;;;8.90;99.90;;;;;;5177527;27;20221;-73
2024/04/24 15:46:36;;;;;;;0.32;0.32;;;8.90;99.90;;;;;;5176557;27;20277;-74
2024/04/24 15:49:02;;;;;;;0.30;0.30;;;8.90;99.90;;;;;;5177939;27;20703;-73
2024/04/24 15:51:27;;;;;;;0.30;0.30;;;8.90;99.90;;;;;;5177622;27;20231;-73
2024/04/24 15:53:53;;;;;;;0.30;0.30;;;9.00;99.90;;;;;;5178113;27;20304;-72
2024/04/24 15:56:19;;;;;;;0.30;0.30;;;9.10;99.90;;;;;;5177463;27;20322;-72
2024/04/24 15:58:44;;;;;;;0.30;0.30;;;9.30;99.90;;;;;;5175967;27;20700;-72
2024/04/24 16:01:10;;;;;;;0.30;0.30;;;9.20;99.90;;;;;;5175932;27;20448;-71
2024/04/24 16:03:36;;;;;;;0.30;0.30;;;9.10;99.90;;;;;;5154161;27;20660;-72
2024/04/24 16:06:02;;;;;;;0.30;0.30;;;8.80;99.90;;;;;;5162275;27;20238;-71
2024/04/24 16:08:28;;;;;;;0.30;0.30;;;8.30;99.90;;;;;;5148588;27;20274;-71
2024/04/24 16:10:56;;;;;;;0.40;0.40;;;7.70;99.90;;;;;;5146235;27;20287;-72
2024/04/24 16:13:23;;;;;;;0.30;0.30;;;7.10;99.90;;;;;;5147854;27;20231;-69
2024/04/24 16:15:49;;;;;;;0.30;0.30;;;6.60;99.90;;;;;;5129963;27;20285;-70
2024/04/24 16:18:15;;;;;;;0.40;0.40;;;6.20;99.90;;;;;;5148680;27;20218;-70
2024/04/24 16:20:42;;;;;;;0.43;0.43;;;5.90;99.90;;;;;;5151800;27;20521;-70
2024/04/24 16:23:08;;;;;;;0.30;0.30;;;5.80;99.90;;;;;;5148523;27;20285;-71
2024/04/24 16:25:33;;;;;;;0.30;0.30;;;5.70;99.90;;;;;;5162219;27;20234;-71
2024/04/24 16:27:59;;;;;;;0.30;0.30;;;5.60;99.90;;;;;;5176468;27;20218;-68
2024/04/24 16:30:25;;;;;;;0.40;0.40;;;5.60;99.90;;;;;;5133812;27;20885;-70
2024/04/24 16:32:51;;;;;;;0.30;0.30;;;5.70;99.90;;;;;;5138353;27;20242;-71
2024/04/24 16:35:17;;;;;;;0.30;0.30;;;5.80;99.90;;;;;;5136525;27;20343;-70
2024/04/24 16:37:45;;;;;;;0.30;0.30;;;5.90;99.90;;;;;;5142016;27;20285;-70
2024/04/24 16:40:14;;;;;;;0.35;0.35;;;5.90;99.90;;;;;;5148144;27;20718;-71
2024/04/24 16:42:40;;;;;;;0.38;0.38;;;6.00;99.90;;;;;;5147612;27;20541;-70
2024/04/24 16:45:06;;;;;;;0.30;0.30;;;6.00;99.90;;;;;;5147127;27;20281;-69
2024/04/24 16:47:31;;;;;;;0.40;0.40;;;5.90;99.90;;;;;;5147734;27;20231;-71
2024/04/24 16:49:57;;;;;;;0.40;0.40;;;5.90;99.90;;;;;;5148049;27;20231;-71
2024/04/24 16:52:23;;;;;;;0.30;0.30;;;6.00;99.90;;;;;;5146558;27;20267;-71
2024/04/24 16:54:49;;;;;;;0.30;0.30;;;6.00;99.90;;;;;;5147874;27;20281;-73
2024/04/24 16:57:14;;;;;;;0.30;0.30;;;6.10;99.90;;;;;;5139714;27;20238;-70
2024/04/24 16:59:40;;;;;;;0.30;0.30;;;6.00;99.90;;;;;;5156101;27;20242;-70